createdAt,value
2022-08-27T00:00:55.904Z,85.47
2022-08-27T00:03:24.031Z,85.54
2022-08-27T00:05:53.580Z,85.76
2022-08-27T00:08:21.769Z,85.95
2022-08-27T00:11:00.278Z,86.03
2022-08-27T00:13:29.101Z,86.01
2022-08-27T00:15:57.207Z,86.25
2022-08-27T00:18:26.575Z,86.42
2022-08-27T00:20:56.404Z,86.84
2022-08-27T00:23:25.686Z,87.21
2022-08-27T00:25:56.659Z,87.09
2022-08-27T00:28:28.948Z,87.50
2022-08-27T00:30:58.371Z,87.80
2022-08-27T00:33:27.709Z,87.86
2022-08-27T00:36:03.396Z,87.73
2022-08-27T00:38:31.977Z,87.89
2022-08-27T00:41:01.599Z,87.77
2022-08-27T00:43:47.139Z,87.40
2022-08-27T00:46:22.040Z,87.26
2022-08-27T00:48:50.751Z,86.75
2022-08-27T00:51:21.783Z,86.55
2022-08-27T00:53:51.863Z,86.32
2022-08-27T00:56:23.737Z,86.39
2022-08-27T00:58:54.685Z,86.51
2022-08-27T01:01:25.977Z,86.67
2022-08-27T01:03:56.755Z,86.97
2022-08-27T01:06:30.597Z,86.88
2022-08-27T01:09:04.423Z,86.93
2022-08-27T01:11:33.400Z,86.86
2022-08-27T01:14:02.048Z,86.94
2022-08-27T01:16:36.946Z,86.99
2022-08-27T01:19:08.829Z,86.75
2022-08-27T01:21:47.564Z,86.82
2022-08-27T01:24:32.816Z,86.83
2022-08-27T01:27:02.768Z,86.94
2022-08-27T01:29:33.884Z,86.89
2022-08-27T01:32:12.260Z,87.10
2022-08-27T01:34:40.573Z,87.10
2022-08-27T01:37:09.748Z,87.12
2022-08-27T01:39:41.001Z,87.20
2022-08-27T01:42:12.046Z,87.36
2022-08-27T01:44:46.415Z,87.50
2022-08-27T01:47:15.097Z,87.55
2022-08-27T01:49:43.351Z,87.68
2022-08-27T01:52:13.811Z,87.70
2022-08-27T01:54:44.042Z,87.89
2022-08-27T01:57:11.864Z,87.54
2022-08-27T01:59:40.735Z,87.66
2022-08-27T02:02:09.593Z,87.56
2022-08-27T02:04:38.020Z,87.83
2022-08-27T02:07:06.545Z,87.73
2022-08-27T02:09:34.777Z,87.73
2022-08-27T02:12:05.356Z,87.81
2022-08-27T02:14:33.843Z,87.74
2022-08-27T02:17:02.282Z,87.85
2022-08-27T02:19:30.501Z,88.50
2022-08-27T02:22:00.525Z,88.84
2022-08-27T02:24:29.389Z,89.23
2022-08-27T02:26:58.147Z,89.29
2022-08-27T02:29:28.044Z,89.28
2022-08-27T02:31:56.225Z,89.19
2022-08-27T02:34:24.402Z,89.10
2022-08-27T02:36:52.537Z,89.39
2022-08-27T02:39:20.778Z,89.30
2022-08-27T02:41:49.528Z,89.31
2022-08-27T02:44:17.869Z,89.19
2022-08-27T02:46:47.540Z,88.88
2022-08-27T02:49:19.947Z,88.89
2022-08-27T02:51:48.143Z,88.59
2022-08-27T02:54:17.970Z,88.57
2022-08-27T02:56:46.146Z,88.40
2022-08-27T02:59:15.180Z,88.52
2022-08-27T03:01:43.483Z,88.82
2022-08-27T03:04:13.347Z,88.46
2022-08-27T03:06:42.859Z,88.46
2022-08-27T03:09:11.583Z,88.25
2022-08-27T03:11:39.770Z,88.33
2022-08-27T03:14:07.999Z,88.28
2022-08-27T03:16:36.785Z,88.23
2022-08-27T03:19:06.612Z,88.36
2022-08-27T03:21:37.600Z,88.15
2022-08-27T03:24:09.221Z,88.14
2022-08-27T03:26:40.157Z,88.03
2022-08-27T03:29:09.561Z,88.15
2022-08-27T03:31:37.937Z,87.89
2022-08-27T03:34:09.576Z,87.81
2022-08-27T03:36:39.173Z,87.83
2022-08-27T03:39:08.022Z,87.66
2022-08-27T03:41:45.370Z,87.89
2022-08-27T03:44:23.546Z,87.69
2022-08-27T03:46:51.776Z,87.77
2022-08-27T03:49:21.549Z,87.85
2022-08-27T03:51:52.750Z,87.77
2022-08-27T03:54:21.336Z,87.74
2022-08-27T03:56:49.568Z,87.54
2022-08-27T03:59:20.241Z,87.40
2022-08-27T04:01:48.537Z,87.26
2022-08-27T04:04:16.746Z,87.04
2022-08-27T04:06:45.042Z,86.85
2022-08-27T04:09:14.656Z,86.90
2022-08-27T04:11:43.094Z,86.98
2022-08-27T04:14:19.915Z,87.05
2022-08-27T04:16:56.562Z,86.92
2022-08-27T04:19:27.977Z,86.65
2022-08-27T04:22:00.995Z,86.61
2022-08-27T04:24:31.894Z,86.48
2022-08-27T04:27:00.394Z,86.50
2022-08-27T04:29:29.062Z,86.50
2022-08-27T04:31:57.374Z,86.64
2022-08-27T04:34:25.995Z,86.58
2022-08-27T04:36:57.345Z,86.69
2022-08-27T04:39:27.180Z,86.51
2022-08-27T04:41:58.684Z,86.31
2022-08-27T04:44:28.875Z,86.28
2022-08-27T04:46:57.994Z,86.10
2022-08-27T04:49:27.075Z,85.85
2022-08-27T04:51:55.944Z,85.94
2022-08-27T04:54:32.868Z,86.17
2022-08-27T04:57:05.954Z,85.85
2022-08-27T04:59:34.947Z,85.96
2022-08-27T05:02:04.845Z,85.97
2022-08-27T05:04:33.566Z,85.80
2022-08-27T05:07:02.312Z,85.53
2022-08-27T05:09:30.748Z,85.53
2022-08-27T05:11:58.930Z,85.58
2022-08-27T05:14:30.379Z,85.18
2022-08-27T05:16:59.117Z,85.17
2022-08-27T05:19:27.972Z,85.33
2022-08-27T05:21:56.403Z,85.18
2022-08-27T05:24:25.935Z,85.09
2022-08-27T05:26:54.426Z,84.84
2022-08-27T05:29:22.576Z,84.64
2022-08-27T05:31:52.348Z,84.51
2022-08-27T05:34:24.535Z,84.22
2022-08-27T05:36:55.948Z,84.27
2022-08-27T05:39:24.431Z,84.05
2022-08-27T05:41:53.770Z,84.21
2022-08-27T05:44:40.650Z,84.26
2022-08-27T05:47:11.575Z,84.32
2022-08-27T05:49:40.131Z,83.97
2022-08-27T05:52:10.824Z,83.86
2022-08-27T05:54:39.871Z,83.36
2022-08-27T05:57:08.302Z,83.04
2022-08-27T05:59:54.268Z,82.75
2022-08-27T06:02:24.079Z,82.56
2022-08-27T06:04:53.623Z,82.53
2022-08-27T06:07:21.807Z,82.28
2022-08-27T06:09:49.963Z,82.34
2022-08-27T06:12:18.146Z,82.39
2022-08-27T06:14:46.254Z,82.31
2022-08-27T06:17:14.476Z,82.23
2022-08-27T06:19:45.828Z,81.93
2022-08-27T06:22:15.193Z,81.69
2022-08-27T06:24:44.320Z,81.47
2022-08-27T06:27:14.737Z,81.06
2022-08-27T06:29:44.696Z,80.77
2022-08-27T06:32:14.837Z,80.60
2022-08-27T06:34:44.532Z,80.10
2022-08-27T06:37:12.768Z,79.50
2022-08-27T06:39:40.812Z,78.70
2022-08-27T06:42:13.391Z,78.21
2022-08-27T06:44:42.051Z,77.82
2022-08-27T06:47:12.896Z,77.51
2022-08-27T06:49:46.292Z,77.21
2022-08-27T06:52:16.821Z,76.93
2022-08-27T06:54:45.352Z,76.55
2022-08-27T06:57:13.629Z,76.37
2022-08-27T06:59:41.867Z,76.08
2022-08-27T07:02:10.257Z,75.88
2022-08-27T07:04:38.454Z,75.83
2022-08-27T07:07:06.574Z,75.70
2022-08-27T07:09:36.178Z,75.66
2022-08-27T07:12:05.794Z,75.67
2022-08-27T07:14:38.111Z,75.69
2022-08-27T07:17:11.314Z,75.87
2022-08-27T07:19:45.412Z,76.05
2022-08-27T07:22:14.236Z,75.97
2022-08-27T07:24:44.072Z,75.83
2022-08-27T07:27:12.700Z,75.65
2022-08-27T07:29:41.638Z,75.53
2022-08-27T07:32:10.284Z,75.52
2022-08-27T07:34:43.028Z,75.20
2022-08-27T07:37:13.667Z,75.23
2022-08-27T07:39:45.858Z,75.30
2022-08-27T07:42:35.816Z,75.19
2022-08-27T07:45:04.210Z,75.25
2022-08-27T07:47:35.529Z,75.56
2022-08-27T07:50:03.668Z,75.58
2022-08-27T07:52:31.865Z,75.23
2022-08-27T07:55:01.581Z,74.78
2022-08-27T07:57:35.235Z,74.47
2022-08-27T08:00:10.944Z,74.13
2022-08-27T08:02:52.798Z,73.68
2022-08-27T08:05:23.463Z,73.37
2022-08-27T08:08:02.468Z,73.73
2022-08-27T08:10:35.506Z,73.68
2022-08-27T08:13:05.999Z,73.57
2022-08-27T08:15:34.917Z,73.27
2022-08-27T08:18:03.531Z,72.94
2022-08-27T08:20:54.648Z,69.79
2022-08-27T08:23:21.946Z,66.37
2022-08-27T08:25:51.513Z,64.07
2022-08-27T08:28:19.615Z,61.97
2022-08-27T08:30:48.041Z,60.38
2022-08-27T08:33:17.325Z,58.28
2022-08-27T08:35:45.776Z,56.23
2022-08-27T08:38:14.841Z,54.51
2022-08-27T08:40:49.806Z,52.70
2022-08-27T08:43:31.403Z,51.24
2022-08-27T08:46:10.005Z,49.84
2022-08-27T08:48:52.046Z,49.35
2022-08-27T08:51:26.880Z,50.15
2022-08-27T08:53:59.427Z,51.11
2022-08-27T08:56:32.929Z,52.33
2022-08-27T08:59:09.620Z,53.72
2022-08-27T09:01:38.500Z,54.91
2022-08-27T09:04:11.839Z,55.06
2022-08-27T09:06:44.847Z,56.28
2022-08-27T09:09:22.299Z,57.86
2022-08-27T09:12:00.048Z,58.66
2022-08-27T09:14:37.638Z,59.24
2022-08-27T09:17:10.684Z,59.93
2022-08-27T09:19:40.027Z,60.71
2022-08-27T09:22:18.114Z,61.18
2022-08-27T09:24:57.137Z,61.54
2022-08-27T09:27:26.504Z,61.75
2022-08-27T09:29:58.572Z,62.05
2022-08-27T09:32:29.460Z,62.19
2022-08-27T09:35:00.048Z,62.53
2022-08-27T09:37:33.908Z,62.23
2022-08-27T09:40:13.594Z,62.31
2022-08-27T09:42:54.476Z,61.95
2022-08-27T09:45:27.107Z,61.81
2022-08-27T09:48:03.318Z,61.70
2022-08-27T09:50:43.392Z,61.27
2022-08-27T09:53:21.131Z,61.10
2022-08-27T09:55:54.790Z,60.43
2022-08-27T09:58:27.380Z,59.81
2022-08-27T10:01:03.854Z,58.89
2022-08-27T10:03:33.511Z,57.88
2022-08-27T10:06:02.557Z,56.09
2022-08-27T10:08:42.741Z,56.40
2022-08-27T10:11:12.729Z,56.51
2022-08-27T10:13:48.852Z,55.78
2022-08-27T10:16:37.960Z,56.17
2022-08-27T10:19:16.622Z,55.93
2022-08-27T10:21:51.110Z,55.63
2022-08-27T10:24:31.415Z,54.84
2022-08-27T10:27:11.223Z,53.64
2022-08-27T10:29:50.232Z,53.54
2022-08-27T10:32:37.593Z,53.13
2022-08-27T10:35:16.566Z,53.22
2022-08-27T10:37:55.967Z,53.64
2022-08-27T10:40:36.191Z,53.02
2022-08-27T10:43:16.414Z,52.77
2022-08-27T10:45:57.525Z,52.05
2022-08-27T10:48:41.434Z,51.75
2022-08-27T10:51:23.335Z,51.49
2022-08-27T10:54:02.615Z,51.29
2022-08-27T10:56:44.923Z,50.88
2022-08-27T10:59:23.657Z,51.02
2022-08-27T11:02:12.083Z,50.74
2022-08-27T11:05:15.275Z,50.19
2022-08-27T11:07:49.169Z,49.83
2022-08-27T11:10:47.371Z,49.98
2022-08-27T11:13:23.983Z,49.90
2022-08-27T11:15:59.161Z,49.23
2022-08-27T11:18:40.807Z,49.44
2022-08-27T11:21:18.356Z,49.55
2022-08-27T11:23:49.678Z,49.66
2022-08-27T11:26:18.994Z,49.57
2022-08-27T11:46:58.996Z,46.68
2022-08-27T11:50:17.488Z,47.18
2022-08-27T11:56:43.671Z,46.65
2022-08-27T12:00:22.083Z,47.07
2022-08-27T12:07:36.182Z,46.48
2022-08-27T12:17:43.767Z,46.62
2022-08-27T12:21:29.420Z,46.70
2022-08-27T12:24:33.764Z,47.34
2022-08-27T12:29:43.808Z,46.78
2022-08-27T12:32:42.062Z,46.55
2022-08-27T14:03:53.260Z,42.84
2022-08-27T14:24:58.103Z,45.76
2022-08-27T15:04:32.709Z,44.74
2022-08-27T15:07:28.042Z,44.60
2022-08-27T15:23:25.764Z,44.20
2022-08-27T15:30:10.892Z,43.51
2022-08-27T16:18:32.602Z,44.08
2022-08-27T16:21:06.146Z,44.22
2022-08-27T16:23:40.637Z,44.00
2022-08-27T16:26:10.301Z,43.55
2022-08-27T16:28:41.199Z,44.11
2022-08-27T16:46:05.311Z,44.27
2022-08-27T16:49:01.341Z,44.50
2022-08-27T16:51:40.084Z,44.64
2022-08-27T16:54:11.652Z,44.86
2022-08-27T16:56:40.440Z,45.43
2022-08-27T16:59:13.346Z,45.44
2022-08-27T17:02:01.252Z,45.64
2022-08-27T17:04:38.039Z,46.04
2022-08-27T17:07:14.831Z,45.91
2022-08-27T17:13:29.764Z,46.32
2022-08-27T17:16:01.809Z,47.02
2022-08-27T17:18:37.006Z,46.83
2022-08-27T17:21:19.621Z,46.81
2022-08-27T17:23:55.736Z,46.81
2022-08-27T17:26:25.617Z,46.38
2022-08-27T17:28:54.134Z,46.23
2022-08-27T17:31:28.272Z,46.42
2022-08-27T17:34:01.303Z,46.42
2022-08-27T17:36:30.896Z,46.56
2022-08-27T17:39:02.804Z,47.24
2022-08-27T17:41:34.479Z,47.25
2022-08-27T17:44:06.228Z,47.49
2022-08-27T17:46:34.330Z,47.66
2022-08-27T17:49:03.935Z,47.99
2022-08-27T17:51:37.600Z,48.13
2022-08-27T17:54:06.129Z,48.47
2022-08-27T17:56:40.342Z,48.65
2022-08-27T17:59:08.993Z,48.77
2022-08-27T18:01:40.284Z,49.29
2022-08-27T18:04:09.802Z,49.60
2022-08-27T18:06:37.947Z,49.99
2022-08-27T18:09:08.776Z,50.52
2022-08-27T18:11:42.294Z,50.81
2022-08-27T18:14:11.661Z,50.80
2022-08-27T18:16:43.086Z,51.29
2022-08-27T18:19:16.376Z,51.93
2022-08-27T18:21:50.309Z,51.93
2022-08-27T18:24:18.614Z,52.43
2022-08-27T18:26:52.442Z,52.75
2022-08-27T18:29:20.787Z,53.06
2022-08-27T18:31:53.766Z,53.29
2022-08-27T18:34:23.261Z,54.00
2022-08-27T18:36:51.489Z,54.41
2022-08-27T19:14:47.260Z,59.88
2022-08-27T19:17:25.198Z,59.86
2022-08-27T19:19:54.172Z,60.10
2022-08-27T19:22:27.298Z,60.15
2022-08-27T19:25:01.256Z,60.35
2022-08-27T19:27:30.748Z,60.78
2022-08-27T19:30:03.554Z,60.95
2022-08-27T19:32:31.977Z,61.34
2022-08-27T19:35:00.090Z,61.67
2022-08-27T19:37:31.488Z,61.72
2022-08-27T19:39:59.682Z,61.77
2022-08-27T19:42:30.557Z,61.96
2022-08-27T19:45:02.909Z,61.83
2022-08-27T19:47:32.906Z,62.24
2022-08-27T19:50:01.241Z,62.49
2022-08-27T19:52:31.634Z,62.59
2022-08-27T19:55:13.970Z,62.81
2022-08-27T19:57:42.860Z,62.94
2022-08-27T20:00:15.618Z,63.17
2022-08-27T20:02:44.900Z,63.32
2022-08-27T20:05:18.597Z,63.59
2022-08-27T20:07:54.924Z,63.80
2022-08-27T20:10:31.825Z,63.88
2022-08-27T20:13:08.292Z,63.92
2022-08-27T20:15:40.744Z,64.06
2022-08-27T20:18:14.360Z,64.36
2022-08-27T20:20:42.875Z,64.52
2022-08-27T20:23:16.943Z,64.58
2022-08-27T20:25:52.339Z,64.80
2022-08-27T20:28:38.862Z,64.87
2022-08-27T20:31:10.203Z,64.98
2022-08-27T20:33:43.544Z,64.75
2022-08-27T20:36:13.191Z,65.23
2022-08-27T20:38:41.267Z,65.20
2022-08-27T20:41:09.365Z,65.26
2022-08-27T20:43:40.190Z,65.46
2022-08-27T20:46:10.492Z,65.54
2022-08-27T20:48:41.577Z,65.59
2022-08-27T20:51:10.169Z,65.70
2022-08-27T20:53:38.275Z,65.86
2022-08-27T20:56:06.605Z,65.87
2022-08-27T20:58:52.436Z,65.90
2022-08-27T21:01:24.920Z,66.08
2022-08-27T21:03:54.273Z,66.13
2022-08-27T21:06:26.356Z,66.25
2022-08-27T21:08:57.414Z,66.53
2022-08-27T21:11:25.695Z,66.63
2022-08-27T21:13:56.480Z,66.77
2022-08-27T21:16:27.293Z,66.63
2022-08-27T21:18:55.844Z,66.73
2022-08-27T21:21:26.807Z,66.73
2022-08-27T21:23:57.871Z,66.85
2022-08-27T21:26:25.986Z,66.62
2022-08-27T21:29:02.979Z,66.63
2022-08-27T21:31:34.253Z,66.60
2022-08-27T21:34:02.541Z,66.46
2022-08-27T21:36:30.885Z,66.87
2022-08-27T21:38:59.105Z,66.89
2022-08-27T21:41:27.333Z,67.11
2022-08-27T21:43:55.676Z,67.08
2022-08-27T21:46:26.448Z,67.08
2022-08-27T21:48:59.280Z,67.14
2022-08-27T21:51:33.665Z,67.45
2022-08-27T21:54:04.853Z,67.12
2022-08-27T21:56:35.451Z,67.12
2022-08-27T21:59:06.161Z,67.30
2022-08-27T22:01:34.289Z,67.36
2022-08-27T22:04:06.369Z,67.38
2022-08-27T22:06:40.108Z,67.56
2022-08-27T22:09:10.260Z,68.07
2022-08-27T22:11:40.115Z,67.84
2022-08-27T22:14:13.166Z,68.07
2022-08-27T22:16:43.629Z,68.46
2022-08-27T22:19:13.087Z,68.44
2022-08-27T22:21:46.088Z,68.54
2022-08-27T22:24:17.700Z,68.68
2022-08-27T22:26:48.903Z,68.87
2022-08-27T22:29:17.000Z,68.94
2022-08-27T22:31:46.193Z,69.09
2022-08-27T22:34:15.818Z,69.24
2022-08-27T22:36:44.064Z,69.14
2022-08-27T22:39:12.099Z,69.22
2022-08-27T22:41:46.133Z,69.14
2022-08-27T22:44:16.837Z,69.41
2022-08-27T22:46:45.374Z,69.53
2022-08-27T22:49:13.573Z,69.68
2022-08-27T22:51:43.160Z,69.77
2022-08-27T22:54:11.410Z,70.01
2022-08-27T22:56:39.465Z,70.09
2022-08-27T22:59:07.647Z,70.30
2022-08-27T23:01:36.426Z,70.45
2022-08-27T23:04:06.551Z,70.55
2022-08-27T23:06:34.530Z,70.45
2022-08-27T23:09:06.930Z,70.74
2022-08-27T23:11:35.880Z,70.99
2022-08-27T23:14:07.010Z,71.28
2022-08-27T23:16:37.737Z,71.34
2022-08-27T23:19:05.808Z,71.64
2022-08-27T23:21:35.348Z,72.05
2022-08-27T23:24:03.895Z,72.40
2022-08-27T23:26:50.889Z,72.42
2022-08-27T23:29:19.139Z,72.76
2022-08-27T23:31:48.656Z,72.78
2022-08-27T23:34:22.683Z,73.07
2022-08-27T23:36:53.468Z,73.23
2022-08-27T23:39:21.602Z,73.04
2022-08-27T23:41:58.154Z,73.41
2022-08-27T23:44:29.419Z,73.67
2022-08-27T23:47:00.338Z,73.93
2022-08-27T23:49:28.769Z,73.86
2022-08-27T23:51:57.556Z,74.00
2022-08-27T23:54:25.710Z,74.14
2022-08-27T23:56:55.184Z,74.14
2022-08-27T23:59:30.585Z,74.25
